Marysville, Indiana
Current Conditions -  °F | °C
As of 12:53 PM on Friday 28 Nov 2014 (Local Time) from KLOU Reporting Station
Few Clouds Few Clouds  
Wind Chill: 25°   Ceiling: Unl
Heat Index: 34°   Visibility: 10mi
Dew Point: 21°   Wind: 12mph
Humidity: 59%   Direction: 200°SSW
Pressure: 30.32"   Gusts: NA
Location:  38.58°N, 85.64°W
Report Text: KLOU 281753Z 20010KT 10SM FEW120 01/M06 A3032 RMK AO2 SLP271 T00111061 10011 21033 58030
Loading
Personal Weather Stations






























Interactive Weather Map New forecast layout! Learn more

10-Day Weather Forecast

Advertisements
Track Severe Weather on mobile